Time;durP1;ratioP1;P1;durP2;ratioP2;P2;SDS_P1;SDS_P2;PMS_P1;PMS_P2;Temp;Humidity;BMP_temperature;BMP_pressure;BME280_temperature;BME280_humidity;BME280_pressure;Samples;Min_cycle;Max_cycle;Signal;HPM_P1;HPM_P2
2022/10/28 00:01:14;;;;;;;54.40;32.45;;;;;;;9.52;100.00;101368.41;4861508;29;20086;-76
2022/10/28 00:03:45;;;;;;;57.58;32.42;;;;;;;9.49;100.00;101372.19;4846231;29;20025;-76
2022/10/28 00:06:26;;;;;;;54.08;31.52;;;;;;;9.46;100.00;101376.75;4860761;29;20077;-77
2022/10/28 00:08:56;;;;;;;53.10;28.57;;;;;;;9.44;100.00;101376.44;4845749;29;20057;-77
2022/10/28 00:11:27;;;;;;;50.58;30.40;;;;;;;9.38;100.00;101366.03;4845765;29;20298;-76
2022/10/28 00:13:55;;;;;;;60.17;33.40;;;;;;;9.42;100.00;101375.28;4860741;29;20120;-77
2022/10/28 00:16:25;;;;;;;57.55;32.33;;;;;;;9.40;100.00;101372.06;4860867;29;20358;-77
2022/10/28 00:18:52;;;;;;;53.03;33.40;;;;;;;9.39;100.00;101371.28;4861389;29;20037;-78
2022/10/28 00:21:25;;;;;;;53.22;31.38;;;;;;;9.40;100.00;101377.78;4861077;29;20037;-77
2022/10/28 00:23:50;;;;;;;58.40;31.67;;;;;;;9.35;100.00;101366.97;4861051;29;20036;-77
2022/10/28 00:26:19;;;;;;;54.75;32.13;;;;;;;9.34;100.00;101368.22;4861895;29;20391;-77
2022/10/28 00:28:48;;;;;;;60.45;32.55;;;;;;;9.29;100.00;101372.44;4861153;29;20049;-76
2022/10/28 00:31:16;;;;;;;61.55;32.65;;;;;;;9.20;100.00;101367.41;4860700;29;20100;-77
2022/10/28 00:33:43;;;;;;;61.05;32.92;;;;;;;9.21;100.00;101371.06;4860920;29;20037;-77
2022/10/28 00:36:26;;;;;;;58.75;34.67;;;;;;;9.19;100.00;101368.69;4860812;29;20093;-76
2022/10/28 00:38:53;;;;;;;61.22;33.25;;;;;;;9.17;100.00;101347.56;4845323;29;20491;-77
2022/10/28 00:41:30;;;;;;;58.58;33.45;;;;;;;9.16;100.00;101357.38;4845410;29;20479;-76
2022/10/28 00:44:38;;;;;;;64.43;34.92;;;;;;;9.07;100.00;101340.97;4860614;29;20121;-76
2022/10/28 00:47:30;;;;;;;73.25;34.50;;;;;;;9.11;100.00;101352.25;4861618;29;20086;-76
2022/10/28 00:50:30;;;;;;;62.83;33.83;;;;;;;9.10;100.00;101350.69;4861978;29;20040;-76
2022/10/28 00:53:19;;;;;;;61.63;33.55;;;;;;;9.08;100.00;101353.97;4860340;29;20040;-76
2022/10/28 00:56:05;;;;;;;55.58;32.33;;;;;;;9.07;100.00;101351.56;4861012;29;20040;-75
2022/10/28 00:58:31;;;;;;;59.35;33.72;;;;;;;9.05;100.00;101343.47;4875288;29;20092;-76
2022/10/28 01:00:58;;;;;;;62.35;34.40;;;;;;;8.99;100.00;101331.06;4860128;29;20065;-76
2022/10/28 01:03:25;;;;;;;58.50;32.60;;;;;;;8.99;100.00;101339.63;4861243;29;20098;-76
2022/10/28 01:05:51;;;;;;;57.70;31.73;;;;;;;9.01;100.00;101333.44;4859828;29;20041;-77
2022/10/28 01:08:20;;;;;;;54.45;32.10;;;;;;;8.93;100.00;101323.53;4860263;29;20029;-76
2022/10/28 01:11:21;;;;;;;55.83;31.77;;;;;;;8.97;100.00;101336.41;4860466;29;20025;-75
2022/10/28 01:14:16;;;;;;;55.15;31.63;;;;;;;8.78;100.00;101297.53;4860174;29;20033;-76
2022/10/28 01:17:10;;;;;;;56.75;32.70;;;;;;;8.89;100.00;101323.66;4861671;29;20060;-76
2022/10/28 01:19:52;;;;;;;52.38;31.55;;;;;;;8.88;100.00;101322.06;4861572;29;20112;-76
2022/10/28 01:22:27;;;;;;;61.70;33.65;;;;;;;8.85;100.00;101320.13;4861376;29;20030;-76
2022/10/28 01:25:29;;;;;;;53.58;30.58;;;;;;;8.85;100.00;101311.59;4859967;29;20357;-76
2022/10/28 01:28:11;;;;;;;50.95;30.90;;;;;;;8.87;100.00;101319.66;4840888;29;20045;-76
2022/10/28 01:31:16;;;;;;;51.17;31.27;;;;;;;8.87;100.00;101314.75;4840743;29;20404;-76
2022/10/28 01:34:12;;;;;;;52.10;29.98;;;;;;;8.88;100.00;101315.56;4841024;29;20030;-76
2022/10/28 01:37:07;;;;;;;55.25;30.00;;;;;;;8.89;100.00;101314.31;4864886;29;20046;-76
2022/10/28 01:39:44;;;;;;;54.03;30.08;;;;;;;8.87;100.00;101311.91;4860229;29;20376;-76
2022/10/28 01:42:25;;;;;;;54.05;29.13;;;;;;;8.91;100.00;101308.94;4875327;29;20425;-76
2022/10/28 01:45:19;;;;;;;54.13;30.02;;;;;;;8.88;100.00;101304.16;4860945;29;20069;-76
2022/10/28 01:47:51;;;;;;;47.60;29.25;;;;;;;8.88;100.00;101301.31;4861235;29;20463;-75
2022/10/28 01:50:31;;;;;;;55.80;29.58;;;;;;;8.87;100.00;101300.50;4859999;29;20105;-77
2022/10/28 01:53:02;;;;;;;51.22;30.10;;;;;;;8.88;100.00;101302.09;4859306;29;20045;-76
2022/10/28 01:55:38;;;;;;;51.38;28.83;;;;;;;8.86;100.00;101286.69;4844551;29;20045;-76
2022/10/28 01:58:07;;;;;;;51.95;28.67;;;;;;;8.83;100.00;101280.69;4844460;29;20161;-75
2022/10/28 02:00:33;;;;;;;54.33;29.67;;;;;;;8.90;100.00;101287.41;4844691;29;20082;-77
2022/10/28 02:02:58;;;;;;;52.38;29.10;;;;;;;8.83;100.00;101272.13;4860229;29;20380;-75
2022/10/28 02:05:43;;;;;;;47.88;28.88;;;;;;;8.90;100.00;101279.66;4859415;29;20496;-76
2022/10/28 02:08:43;;;;;;;49.00;28.55;;;;;;;8.88;100.00;101278.50;4861123;29;20033;-75
2022/10/28 02:11:26;;;;;;;58.63;29.17;;;;;;;8.85;100.00;101274.53;4859648;29;20029;-76
2022/10/28 02:13:59;;;;;;;46.53;28.55;;;;;;;8.82;100.00;101279.06;4860898;29;20510;-75
2022/10/28 02:16:49;;;;;;;47.67;27.48;;;;;;;8.79;100.00;101268.59;4875808;29;20492;-76
2022/10/28 02:19:26;;;;;;;53.15;28.15;;;;;;;8.75;100.00;101269.97;4864897;29;20117;-76
2022/10/28 02:22:03;;;;;;;46.70;27.75;;;;;;;8.73;100.00;101272.47;4865075;29;20037;-76
2022/10/28 02:25:03;;;;;;;51.42;27.88;;;;;;;8.63;100.00;101271.56;4864713;29;20036;-75
2022/10/28 02:27:40;;;;;;;47.40;27.77;;;;;;;8.65;100.00;101271.13;4863318;29;20124;-75
2022/10/28 02:30:14;;;;;;;56.00;29.42;;;;;;;8.63;100.00;101265.06;4863555;29;20069;-76
2022/10/28 02:32:44;;;;;;;47.75;27.67;;;;;;;8.62;100.00;101269.97;4848400;29;20455;-75
2022/10/28 02:35:18;;;;;;;50.88;30.00;;;;;;;8.65;100.00;101273.97;4847871;29;20463;-75
2022/10/28 02:37:46;;;;;;;56.42;29.50;;;;;;;8.65;100.00;101269.06;4863741;29;20067;-76
2022/10/28 02:40:15;;;;;;;52.38;28.08;;;;;;;8.67;100.00;101280.78;4848317;29;20094;-76
2022/10/28 02:42:46;;;;;;;51.42;28.60;;;;;;;8.64;100.00;101278.06;4878724;29;20052;-76
2022/10/28 02:45:18;;;;;;;51.40;28.90;;;;;;;8.67;100.00;101274.28;4878976;29;20033;-76
2022/10/28 02:47:52;;;;;;;55.47;28.70;;;;;;;8.68;100.00;101273.84;4862932;29;20045;-76
2022/10/28 02:50:24;;;;;;;55.85;31.08;;;;;;;8.72;100.00;101274.53;4863747;29;20117;-76
2022/10/28 02:52:54;;;;;;;52.58;29.45;;;;;;;8.74;100.00;101263.47;4878360;29;20041;-76
2022/10/28 02:55:23;;;;;;;60.75;31.88;;;;;;;8.82;100.00;101269.72;4847419;29;20034;-76
2022/10/28 02:58:03;;;;;;;51.20;29.25;;;;;;;8.88;100.00;101262.19;4862577;29;20040;-76
2022/10/28 03:00:28;;;;;;;55.50;29.10;;;;;;;8.93;100.00;101269.38;4878406;29;20034;-76
2022/10/28 03:02:54;;;;;;;53.75;28.95;;;;;;;8.95;100.00;101267.69;4864029;29;20501;-76
2022/10/28 03:05:19;;;;;;;58.17;29.35;;;;;;;8.96;100.00;101262.75;4862302;29;20061;-77
2022/10/28 03:07:46;;;;;;;56.88;30.90;;;;;;;8.95;100.00;101272.59;4863832;29;20023;-76
2022/10/28 03:10:11;;;;;;;56.05;29.42;;;;;;;8.98;100.00;101275.31;4847543;29;20029;-77
2022/10/28 03:12:36;;;;;;;63.70;29.40;;;;;;;8.99;100.00;101267.56;4862661;29;20052;-75
2022/10/28 03:15:03;;;;;;;53.45;26.98;;;;;;;8.98;100.00;101272.44;4862487;29;20075;-76
2022/10/28 03:17:29;;;;;;;53.65;27.98;;;;;;;8.96;100.00;101268.44;4863753;29;20037;-76
2022/10/28 03:19:56;;;;;;;55.47;28.00;;;;;;;8.92;100.00;101259.22;4878162;29;20483;-76
2022/10/28 03:22:21;;;;;;;55.83;28.90;;;;;;;8.95;100.00;101267.69;4863475;29;20506;-75
2022/10/28 03:24:46;;;;;;;54.90;28.02;;;;;;;8.96;100.00;101262.75;4863464;29;20037;-75
2022/10/28 03:27:13;;;;;;;55.25;28.25;;;;;;;9.01;100.00;101265.81;4877677;29;20440;-75
2022/10/28 03:29:38;;;;;;;50.40;28.48;;;;;;;8.96;100.00;101252.16;4863348;29;20086;-75
2022/10/28 03:32:04;;;;;;;57.00;27.90;;;;;;;9.05;100.00;101262.88;4846711;29;20116;-76
2022/10/28 03:34:30;;;;;;;51.83;28.00;;;;;;;9.07;100.00;101251.78;4863516;29;20040;-76
2022/10/28 03:36:56;;;;;;;50.92;25.85;;;;;;;9.00;100.00;101244.25;4862190;29;20045;-76
2022/10/28 03:39:23;;;;;;;54.95;27.75;;;;;;;9.09;100.00;101255.00;4863587;29;20044;-76
2022/10/28 03:41:49;;;;;;;51.22;28.55;;;;;;;9.09;100.00;101252.94;4863402;29;20052;-75
2022/10/28 03:44:15;;;;;;;48.97;27.40;;;;;;;9.15;100.00;101261.72;4862856;29;20037;-76
2022/10/28 03:46:41;;;;;;;48.85;26.35;;;;;;;9.15;100.00;101256.00;4861689;29;20037;-76
2022/10/28 03:49:06;;;;;;;44.42;26.15;;;;;;;9.17;100.00;101251.44;4877830;29;20094;-75
2022/10/28 03:51:32;;;;;;;48.15;25.83;;;;;;;9.21;100.00;101252.09;4863187;29;20049;-76
2022/10/28 03:53:58;;;;;;;48.80;26.58;;;;;;;9.21;100.00;101248.44;4861828;29;20468;-76
2022/10/28 03:56:24;;;;;;;48.70;25.92;;;;;;;9.17;100.00;101237.16;4862049;29;20085;-76
2022/10/28 03:58:50;;;;;;;46.70;25.15;;;;;;;9.27;100.00;101246.59;4861978;29;20033;-76
2022/10/28 04:01:15;;;;;;;43.90;24.77;;;;;;;9.14;100.00;101226.69;4876777;29;20045;-76
2022/10/28 04:03:43;;;;;;;55.65;28.55;;;;;;;9.23;100.00;101238.19;4861655;29;20372;-77
2022/10/28 04:06:09;;;;;;;43.08;24.85;;;;;;;9.30;100.00;101247.75;4861545;29;20132;-76
2022/10/28 04:08:36;;;;;;;42.55;24.02;;;;;;;9.32;100.00;101248.88;4861467;29;20555;-76
2022/10/28 04:11:04;;;;;;;42.67;24.90;;;;;;;9.31;100.00;101249.31;4861507;29;20128;-76
2022/10/28 04:13:30;;;;;;;43.65;24.30;;;;;;;9.31;100.00;101241.56;4863611;29;20073;-76
2022/10/28 04:15:56;;;;;;;45.80;25.50;;;;;;;9.30;100.00;101242.06;4862611;29;20128;-76
2022/10/28 04:18:21;;;;;;;52.88;28.75;;;;;;;9.29;100.00;101244.09;4862311;29;20069;-76
2022/10/28 04:20:51;;;;;;;44.35;27.38;;;;;;;9.26;100.00;101242.94;4880640;29;20040;-76
2022/10/28 04:23:18;;;;;;;49.33;25.40;;;;;;;9.17;100.00;101237.16;4880776;29;20467;-76
2022/10/28 04:25:47;;;;;;;53.47;26.25;;;;;;;9.23;100.00;101245.94;4879405;29;20127;-76
2022/10/28 04:28:12;;;;;;;44.88;23.83;;;;;;;9.21;100.00;101251.28;4864049;29;20040;-76
2022/10/28 04:30:38;;;;;;;41.55;23.92;;;;;;;9.04;100.00;101224.22;4874348;29;20490;-76
2022/10/28 04:33:04;;;;;;;44.25;23.45;;;;;;;9.14;100.00;101235.25;4862372;29;20124;-76
2022/10/28 04:35:30;;;;;;;45.42;26.40;;;;;;;9.15;100.00;101230.34;4864054;29;20108;-76
2022/10/28 04:37:56;;;;;;;51.22;25.83;;;;;;;9.05;100.00;101214.41;4864065;29;20492;-76
2022/10/28 04:40:23;;;;;;;42.35;25.00;;;;;;;9.11;100.00;101223.94;4895008;29;20029;-76
2022/10/28 04:42:48;;;;;;;45.95;24.65;;;;;;;9.08;100.00;101225.69;4872870;29;20037;-75
2022/10/28 04:45:14;;;;;;;46.97;26.75;;;;;;;9.01;100.00;101217.34;4860896;29;20038;-76
2022/10/28 04:47:40;;;;;;;45.97;25.83;;;;;;;8.99;100.00;101224.78;4862388;29;20034;-76
2022/10/28 04:50:07;;;;;;;46.70;25.80;;;;;;;8.95;100.00;101221.28;4862752;29;20128;-77
2022/10/28 04:52:33;;;;;;;47.75;25.42;;;;;;;8.95;100.00;101224.91;4860811;29;20033;-78
2022/10/28 04:54:59;;;;;;;41.63;24.33;;;;;;;8.85;100.00;101208.97;4859086;29;20136;-76
2022/10/28 04:57:25;;;;;;;52.53;27.08;;;;;;;8.89;100.00;101218.19;4862176;29;20042;-76
2022/10/28 04:59:52;;;;;;;52.38;26.63;;;;;;;8.86;100.00;101224.00;4860740;29;20117;-75
2022/10/28 05:02:17;;;;;;;45.22;25.80;;;;;;;8.79;100.00;101217.31;4862292;29;20036;-77
2022/10/28 05:04:45;;;;;;;43.03;25.20;;;;;;;8.79;100.00;101225.06;4860740;29;20136;-75
2022/10/28 05:07:12;;;;;;;45.35;25.80;;;;;;;8.79;100.00;101220.16;4860429;29;20416;-76
2022/10/28 05:09:37;;;;;;;40.13;23.75;;;;;;;8.76;100.00;101220.25;4845184;29;20033;-76
2022/10/28 05:12:03;;;;;;;43.83;24.98;;;;;;;8.72;100.00;101219.59;4860723;29;20085;-75
2022/10/28 05:14:29;;;;;;;44.42;25.58;;;;;;;8.76;100.00;101221.06;4861296;29;20046;-76
2022/10/28 05:17:02;;;;;;;44.85;24.92;;;;;;;8.72;100.00;101217.53;4861485;29;20056;-77
2022/10/28 05:19:28;;;;;;;41.47;23.65;;;;;;;8.74;100.00;101215.03;4860442;29;20395;-75
2022/10/28 05:21:53;;;;;;;42.60;24.85;;;;;;;8.69;100.00;101212.75;4862581;29;20056;-75
2022/10/28 05:24:19;;;;;;;44.28;26.65;;;;;;;8.74;100.00;101223.59;4860537;29;20116;-76
2022/10/28 05:26:58;;;;;;;41.40;24.17;;;;;;;8.70;100.00;101210.72;4860656;29;20094;-77
2022/10/28 05:29:24;;;;;;;44.70;24.88;;;;;;;8.71;100.00;101221.63;4860530;29;20045;-77
2022/10/28 05:31:53;;;;;;;43.60;24.77;;;;;;;8.69;100.00;101220.50;4859112;29;20033;-75
2022/10/28 05:34:24;;;;;;;44.90;24.05;;;;;;;8.66;100.00;101210.81;4860188;29;20480;-77
2022/10/28 05:36:57;;;;;;;43.97;24.65;;;;;;;8.73;100.00;101226.88;4859210;29;20077;-77
2022/10/28 05:39:32;;;;;;;43.42;25.33;;;;;;;8.75;100.00;101221.53;4860229;29;20027;-76
2022/10/28 05:42:00;;;;;;;51.60;26.23;;;;;;;8.76;100.00;101218.19;4860581;29;20057;-76
2022/10/28 05:44:26;;;;;;;47.15;25.33;;;;;;;8.82;100.00;101233.47;4861491;29;20036;-76
2022/10/28 05:46:52;;;;;;;43.30;25.90;;;;;;;8.87;100.00;101219.91;4861312;29;20033;-76
2022/10/28 05:49:26;;;;;;;45.17;26.83;;;;;;;8.87;100.00;101211.34;4861256;29;20065;-76
2022/10/28 05:51:53;;;;;;;47.35;27.42;;;;;;;8.91;100.00;101220.56;4876045;29;20037;-75
2022/10/28 05:54:18;;;;;;;48.47;26.27;;;;;;;8.87;100.00;101211.34;4863285;29;20120;-77
2022/10/28 05:56:44;;;;;;;49.03;26.95;;;;;;;8.91;100.00;101226.28;4862738;29;20126;-77
2022/10/28 05:59:15;;;;;;;44.22;27.10;;;;;;;8.83;100.00;101203.72;4863720;29;20112;-76
2022/10/28 06:01:41;;;;;;;46.53;25.42;;;;;;;8.90;100.00;101219.81;4877904;29;20124;-75
2022/10/28 06:04:06;;;;;;;43.90;25.88;;;;;;;8.85;100.00;101228.13;4863826;29;20454;-77
2022/10/28 06:06:35;;;;;;;43.58;25.10;;;;;;;8.91;100.00;101215.66;4861879;29;20212;-79
2022/10/28 06:09:00;;;;;;;44.38;25.67;;;;;;;8.96;100.00;101217.94;4864114;29;20025;-79
2022/10/28 06:11:25;;;;;;;42.70;26.48;;;;;;;9.01;100.00;101211.66;4865197;29;20065;-78
2022/10/28 06:13:51;;;;;;;47.72;25.55;;;;;;;9.03;100.00;101200.59;4865790;29;20097;-80
2022/10/28 06:16:16;;;;;;;45.72;26.77;;;;;;;9.14;100.00;101209.59;4882159;29;20431;-77
2022/10/28 06:18:42;;;;;;;56.03;26.92;;;;;;;9.26;100.00;101207.94;4883090;29;20089;-77
2022/10/28 06:21:10;;;;;;;49.15;25.80;;;;;;;9.20;100.00;101187.75;4881964;29;20116;-78
2022/10/28 06:23:35;;;;;;;44.13;26.45;;;;;;;9.44;100.00;101210.16;4882168;29;20490;-81
2022/10/28 06:26:02;;;;;;;43.85;25.70;;;;;;;9.48;100.00;101203.06;4882372;29;20029;-80
2022/10/28 06:28:28;;;;;;;44.85;23.63;;;;;;;9.50;100.00;101206.22;4883636;29;20033;-78
2022/10/28 06:30:54;;;;;;;78.35;28.05;;;;;;;9.61;100.00;101215.19;4881607;29;20100;-81
2022/10/28 06:33:19;;;;;;;37.95;23.15;;;;;;;9.66;100.00;101213.81;4883316;29;20076;-79
2022/10/28 06:35:45;;;;;;;34.30;22.08;;;;;;;9.74;100.00;101223.75;4883171;29;20033;-78
2022/10/28 06:38:11;;;;;;;32.20;21.58;;;;;;;9.72;100.00;101214.81;4866338;29;20021;-79
2022/10/28 06:40:36;;;;;;;38.20;23.20;;;;;;;9.77;100.00;101211.38;4882976;29;20379;-78
2022/10/28 06:43:03;;;;;;;38.47;21.70;;;;;;;9.96;100.00;101226.56;4882427;29;20033;-79
2022/10/28 06:45:31;;;;;;;36.13;21.58;;;;;;;9.83;100.00;101186.69;4879136;29;20021;-78
2022/10/28 06:47:58;;;;;;;33.28;21.38;;;;;;;10.19;100.00;101234.63;4882318;29;20044;-78
2022/10/28 06:50:24;;;;;;;36.28;21.50;;;;;;;10.33;100.00;101236.16;4881418;29;20119;-79
2022/10/28 06:52:50;;;;;;;33.30;20.20;;;;;;;10.46;100.00;101231.13;4882020;29;20029;-78
2022/10/28 06:55:15;;;;;;;31.83;20.60;;;;;;;10.55;100.00;101228.31;4901374;29;20494;-79
2022/10/28 06:57:41;;;;;;;30.13;20.30;;;;;;;10.66;100.00;101222.16;4901366;29;20028;-75
2022/10/28 07:00:07;;;;;;;29.38;19.17;;;;;;;10.80;100.00;101227.28;4899211;29;20043;-78
2022/10/28 07:02:32;;;;;;;25.92;18.70;;;;;;;11.05;100.00;101227.03;4882675;29;20024;-77
2022/10/28 07:04:58;;;;;;;33.42;20.80;;;;;;;11.20;100.00;101222.31;4898621;29;20364;-76
2022/10/28 07:07:24;;;;;;;29.38;18.05;;;;;;;11.32;100.00;101207.06;4899204;29;20068;-77
2022/10/28 07:09:49;;;;;;;32.13;19.88;;;;;;;11.61;100.00;101218.06;4899039;29;20071;-77
2022/10/28 07:12:15;;;;;;;25.52;16.30;;;;;;;11.92;100.00;101223.56;4883608;29;20056;-79
2022/10/28 07:14:41;;;;;;;30.33;17.08;;;;;;;12.17;100.00;101236.72;4897617;29;20367;-78
2022/10/28 07:17:06;;;;;;;25.08;16.67;;;;;;;12.45;100.00;101243.22;4888628;29;20033;-78
2022/10/28 07:19:32;;;;;;;28.23;17.33;;;;;;;12.67;100.00;101235.13;4880245;29;20463;-78
2022/10/28 07:21:58;;;;;;;26.52;15.90;;;;;;;12.99;100.00;101245.81;4880011;29;20045;-79
2022/10/28 07:24:23;;;;;;;32.67;16.35;;;;;;;13.23;100.00;101231.47;4879377;29;20081;-76
2022/10/28 07:26:49;;;;;;;28.10;17.52;;;;;;;13.52;100.00;101223.00;4880339;29;20024;-78
2022/10/28 07:29:15;;;;;;;31.98;17.45;;;;;;;13.72;100.00;101228.09;4881042;29;20033;-75
2022/10/28 07:31:40;;;;;;;21.83;15.02;;;;;;;13.88;100.00;101223.97;4881954;29;20021;-74
2022/10/28 07:34:05;;;;;;;23.98;15.38;;;;;;;14.12;100.00;101216.03;4881486;29;20036;-77
2022/10/28 07:36:31;;;;;;;20.20;15.68;;;;;;;14.48;100.00;101222.66;4881946;29;20064;-76
2022/10/28 07:38:57;;;;;;;26.90;14.93;;;;;;;14.78;100.00;101218.44;4881395;29;20021;-78
2022/10/28 07:41:23;;;;;;;41.78;16.85;;;;;;;15.17;100.00;101222.66;4882037;29;20392;-77
2022/10/28 08:36:35;;;;;;;13.57;9.80;;;;;;;17.34;100.00;101201.59;5070515;28;20421;-80
2022/10/28 08:39:02;;;;;;;17.10;9.77;;;;;;;17.32;100.00;101200.56;5068708;28;20155;-79
2022/10/28 08:41:43;;;;;;;19.25;9.43;;;;;;;17.29;100.00;101199.47;5068435;28;20029;-78
2022/10/28 08:44:32;;;;;;;12.67;9.30;;;;;;;17.34;100.00;101201.59;5066808;28;20478;-76
2022/10/28 08:47:10;;;;;;;20.35;9.52;;;;;;;17.37;100.00;101196.91;5066712;28;20592;-77
2022/10/28 08:49:38;;;;;;;13.95;8.52;;;;;;;17.41;100.00;101194.56;5068273;28;20575;-77
2022/10/28 08:52:38;;;;;;;15.95;8.35;;;;;;;17.46;100.00;101190.94;5070079;28;20032;-79
2022/10/28 08:55:10;;;;;;;12.43;9.05;;;;;;;17.50;100.00;101193.56;5058056;28;20358;-77
2022/10/28 08:57:39;;;;;;;20.52;9.95;;;;;;;17.62;100.00;101198.88;5081861;28;20094;-80
2022/10/28 09:00:17;;;;;;;15.02;8.50;;;;;;;17.47;100.00;101175.16;5066526;28;20048;-82
2022/10/28 09:02:49;;;;;;;10.80;6.07;;;;;;;17.75;100.00;101207.84;5068009;28;20052;-82
2022/10/28 09:05:25;;;;;;;9.10;5.25;;;;;;;17.80;100.00;101209.16;5069940;28;20536;-81
2022/10/28 09:07:51;;;;;;;12.25;5.20;;;;;;;17.87;100.00;101210.75;5070023;28;20199;-82
2022/10/28 09:10:24;;;;;;;8.35;4.20;;;;;;;17.96;100.00;101205.53;5052161;28;20115;-80
2022/10/28 09:12:54;;;;;;;12.48;5.20;;;;;;;18.00;100.00;101196.59;5068736;28;20028;-82
2022/10/28 09:15:46;;;;;;;10.60;4.45;;;;;;;18.16;100.00;101204.50;5069755;28;20028;-80
2022/10/28 09:18:34;;;;;;;12.50;4.45;;;;;;;18.15;100.00;101197.13;5069053;28;20044;-84
2022/10/28 09:21:04;;;;;;;10.05;3.92;;;;;;;18.21;100.00;101206.63;5068595;28;20028;-83
2022/10/28 09:23:31;;;;;;;14.18;4.05;;;;;;;18.25;100.00;101202.13;5068486;28;20021;-83
2022/10/28 09:26:16;;;;;;;18.92;5.78;;;;;;;18.26;100.00;101200.03;5069910;28;20029;-86
2022/10/28 09:28:57;;;;;;;14.77;4.65;;;;;;;18.30;100.00;101199.78;5069194;28;20029;-80
2022/10/28 09:31:41;;;;;;;18.13;5.32;;;;;;;18.34;100.00;101201.13;5069604;28;20090;-83
2022/10/28 09:34:25;;;;;;;17.15;4.93;;;;;;;18.41;100.00;101197.72;5068691;28;20044;-88
2022/10/28 09:36:54;;;;;;;12.43;4.30;;;;;;;18.48;100.00;101194.28;5079855;28;20082;-83
2022/10/28 09:39:24;;;;;;;15.10;3.53;;;;;;;18.52;100.00;101189.00;5058615;28;20056;-78
2022/10/28 09:41:51;;;;;;;23.85;6.20;;;;;;;18.61;100.00;101200.34;5058886;28;20025;-81
2022/10/28 09:44:35;;;;;;;36.40;6.22;;;;;;;18.67;100.00;101195.31;5058034;28;20013;-77
2022/10/28 09:47:02;;;;;;;38.83;6.75;;;;;;;18.73;100.00;101200.28;5058365;28;20119;-76
2022/10/28 09:49:30;;;;;;;40.70;7.65;;;;;;;18.78;100.00;101191.59;5058105;28;20028;-74
2022/10/28 09:52:10;;;;;;;26.77;5.85;;;;;;;18.81;100.00;101189.78;5057981;28;20031;-76
2022/10/28 09:54:43;;;;;;;58.28;9.57;;;;;;;18.81;100.00;101189.78;5076411;28;20021;-77
2022/10/28 09:57:08;;;;;;;32.92;6.32;;;;;;;18.80;100.00;101186.09;5041500;28;20024;-77
2022/10/28 09:59:34;;;;;;;24.25;6.53;;;;;;;18.84;100.00;101192.38;5075671;28;20099;-80
2022/10/28 10:01:59;;;;;;;46.22;8.40;;;;;;;18.87;100.00;101185.53;5057798;28;20039;-79
2022/10/28 10:04:27;;;;;;;16.48;4.95;;;;;;;18.87;100.00;101179.72;5057662;28;20024;-78
2022/10/28 10:07:03;;;;;;;11.57;4.22;;;;;;;18.91;100.00;101186.06;5075362;28;20025;-81
2022/10/28 10:09:32;;;;;;;17.17;3.92;;;;;;;18.94;100.00;101175.50;5056958;28;20029;-79
2022/10/28 10:12:17;;;;;;;24.45;6.13;;;;;;;18.99;100.00;101180.50;5041185;28;20452;-83
2022/10/28 10:14:48;;;;;;;10.00;3.28;;;;;;;19.02;100.00;101182.31;5040648;28;20033;-82
2022/10/28 10:17:34;;;;;;;26.50;5.43;;;;;;;19.06;100.00;101179.97;5058262;28;20024;-80
2022/10/28 10:20:05;;;;;;;24.02;4.50;;;;;;;19.05;100.00;101167.59;5040595;28;20202;-80
2022/10/28 10:22:39;;;;;;;18.90;4.78;;;;;;;19.17;100.00;101182.03;5075996;28;20032;-80
2022/10/28 10:25:16;;;;;;;25.20;4.80;;;;;;;19.25;100.00;101183.88;5075530;28;20031;-81
2022/10/28 10:27:42;;;;;;;27.83;4.90;;;;;;;19.33;100.00;101178.31;5075830;28;20036;-80
2022/10/28 10:30:17;;;;;;;32.72;5.72;;;;;;;19.32;100.00;101174.63;5055393;28;20024;-76
2022/10/28 10:32:45;;;;;;;27.33;6.15;;;;;;;19.41;100.00;101174.31;5075292;28;20029;-79
2022/10/28 10:35:27;;;;;;;9.40;3.20;;;;;;;19.45;100.00;101174.03;5057093;28;20037;-78
2022/10/28 10:37:54;;;;;;;13.05;4.00;;;;;;;19.47;100.00;101172.19;5063583;28;20025;-79
2022/10/28 10:40:24;;;;;;;20.52;5.38;;;;;;;19.48;100.00;101164.28;5075973;28;20028;-78
2022/10/28 10:42:50;;;;;;;12.35;3.50;;;;;;;19.56;100.00;101176.88;5057881;28;20056;-80
2022/10/28 10:45:19;;;;;;;12.50;3.72;;;;;;;19.58;100.00;101164.75;5077560;28;20465;-80
2022/10/28 10:47:45;;;;;;;12.88;3.05;;;;;;;19.58;100.00;101167.66;5075931;28;20111;-79
2022/10/28 10:50:27;;;;;;;7.70;3.13;;;;;;;19.54;100.00;101165.03;5040284;28;20135;-79
2022/10/28 10:52:55;;;;;;;8.35;3.13;;;;;;;19.53;100.00;101167.16;5075451;28;20024;-77
2022/10/28 10:55:33;;;;;;;11.18;3.33;;;;;;;19.59;100.00;101169.22;5024016;28;20027;-80
2022/10/28 10:57:59;;;;;;;11.00;3.35;;;;;;;19.58;100.00;101170.53;5075408;28;20052;-78
2022/10/28 11:00:31;;;;;;;21.15;4.97;;;;;;;19.59;100.00;101161.31;5024071;28;20115;-78
2022/10/28 11:02:56;;;;;;;20.65;4.15;;;;;;;19.50;100.00;101147.13;5056818;28;20472;-79
2022/10/28 11:05:22;;;;;;;15.85;4.00;;;;;;;19.56;100.00;101155.81;5074696;28;20039;-78
2022/10/28 11:07:49;;;;;;;10.82;3.60;;;;;;;19.59;100.00;101164.22;5056701;28;20107;-81
2022/10/28 11:10:24;;;;;;;6.60;2.35;;;;;;;19.58;100.00;101156.03;5040635;28;20059;-80
2022/10/28 11:12:52;;;;;;;6.38;2.92;;;;;;;19.47;100.00;101140.28;5054594;28;20029;-80
2022/10/28 11:15:21;;;;;;;12.50;2.55;;;;;;;19.58;100.00;101153.16;5074383;28;20453;-77
2022/10/28 11:17:54;;;;;;;39.42;6.82;;;;;;;19.60;100.00;101145.50;5074175;28;20074;-80
2022/10/28 11:20:30;;;;;;;37.42;6.22;;;;;;;19.62;100.00;101154.44;5074345;28;20032;-79
2022/10/28 11:23:07;;;;;;;8.02;2.95;;;;;;;19.63;100.00;101138.63;5056724;28;20070;-79
2022/10/28 11:25:48;;;;;;;10.10;3.38;;;;;;;19.66;100.00;101128.06;5074067;28;20453;-78
2022/10/28 11:28:43;;;;;;;67.80;10.63;;;;;;;19.70;100.00;101135.16;5056292;28;20056;-80
2022/10/28 11:31:36;;;;;;;24.60;4.80;;;;;;;19.69;100.00;101126.97;5056660;28;20020;-80
2022/10/28 11:34:17;;;;;;;11.07;3.03;;;;;;;19.76;100.00;101135.88;5073526;28;20025;-77
2022/10/28 11:36:58;;;;;;;;;;;;;;;19.76;100.00;101127.19;5016801;28;20053;-79
2022/10/28 11:39:33;;;;;;;47.92;7.32;;;;;;;19.78;100.00;101126.66;5033985;28;20319;-78
2022/10/28 11:42:38;;;;;;;55.50;7.38;;;;;;;19.82;100.00;101122.13;5034103;28;20049;-79
2022/10/28 11:45:09;;;;;;;38.20;6.93;;;;;;;19.86;100.00;101125.53;4979736;28;20050;-79
2022/10/28 11:47:47;;;;;;;12.57;2.97;;;;;;;19.91;100.00;101123.91;5033900;28;20029;-79
2022/10/28 11:50:30;;;;;;;31.40;5.65;;;;;;;19.96;100.00;101120.22;5015979;28;20036;-79
2022/10/28 11:53:05;;;;;;;9.23;2.63;;;;;;;20.01;100.00;101121.50;5032312;28;20076;-80
2022/10/28 11:55:59;;;;;;;8.40;3.25;;;;;;;20.10;100.00;101124.09;5033960;28;20492;-81
2022/10/28 11:58:42;;;;;;;5.40;3.20;;;;;;;20.15;100.00;101105.84;5004460;28;20111;-79
2022/10/28 12:01:33;;;;;;;7.40;2.70;;;;;;;20.22;100.00;101111.81;5026452;23;20059;-78
2022/10/28 12:04:19;;;;;;;13.35;3.28;;;;;;;20.27;100.00;101110.19;4958543;28;20035;-84
2022/10/28 12:07:12;;;;;;;9.90;4.20;;;;;;;20.33;100.00;101100.13;4975819;28;20034;-79
2022/10/28 12:09:56;;;;;;;6.32;2.60;;;;;;;20.38;100.00;101093.47;4975984;28;20110;-82
2022/10/28 12:12:45;;;;;;;11.05;2.83;;;;;;;20.44;100.00;101099.22;4937662;29;20035;-80
2022/10/28 12:15:28;;;;;;;7.53;2.55;;;;;;;20.50;100.00;101099.16;4936642;29;20379;-79
2022/10/28 12:18:12;;;;;;;12.63;3.38;;;;;;;20.50;100.00;101085.41;4936906;29;20059;-79
2022/10/28 12:20:48;;;;;;;12.40;3.63;;;;;;;20.59;100.00;101087.97;4938683;29;20107;-81
2022/10/28 12:23:18;;;;;;;8.48;2.33;;;;;;;20.57;99.20;101095.66;4936986;29;20019;-79
2022/10/28 12:26:03;;;;;;;9.10;2.65;;;;;;;20.57;97.16;101101.44;4920046;29;20131;-81